Flight Track Log - Related Links

Times and Time Zones

All times are in EDT time to prevent confusion due to time zone crossing. See the JUS327 flight status page for this flight to view local times or setup timezone preferences in your user account.

Time Position Orientation Groundspeed Altitude Reporting Facility
EDT Latitude Longitude Course Direction KTS MPH feet Rate Location/Type
Sat 07:09:03 AM 42.2278 -89.0547 51° Northeast 191 220 25,000  Level Chicago Center
Sat 07:10:03 AM 42.2647 -89.0075 43° Northeast 209 241 5,400 -7,884 Descending Chicago Center
Sat 07:11:04 AM 42.3217 -88.9319 44° Northeast 281 323 9,100 2,231 Climbing Chicago Center
Sat 07:12:04 AM 42.3853 -88.8583 41° Northeast 297 342 9,900 446 Climbing Chicago Center
Sat 07:13:05 AM 42.4675 -88.8236 17° North 306 352 10,000 49 Climbing Chicago Center
Sat 07:14:00 AM 42.5040 -88.5935 51° Northeast  Level FlightAware Approximate
Sat 07:14:06 AM 42.5508 -88.7925 15° North 311 358 10,000  Level Chicago Center
Sat 07:15:06 AM 42.6331 -88.7533 19° North 312 359 10,000 1,240 Level Chicago Center
Sat 07:16:07 AM 42.7175 -88.7067 22° Northeast 326 375 12,500 2,607 Climbing Chicago Center
Sat 07:17:08 AM 42.7419 -88.5769 76° East 359 413 15,300 2,967 Climbing Chicago Center
Sat 07:19:09 AM 42.7503 -88.2528 88° East 404 465 21,500 2,868 Climbing Chicago Center
Sat 07:20:10 AM 42.7458 -88.0933 92° East 420 483 24,000 1,736 Climbing Chicago Center
Sat 07:21:10 AM 42.7542 -87.9233 86° East 446 513 25,000 496 Climbing Chicago Center
Sat 07:22:11 AM 42.7575 -87.7494 88° East 458 527 25,000  Level Chicago Center
Sat 07:23:12 AM 42.7653 -87.5833 86° East 446 513 25,000  Level Chicago Center
Sat 07:24:12 AM 42.7697 -87.4189 88° East 438 504 25,000  Level Chicago Center
Sat 07:25:13 AM 42.7697 -87.2486 90° East 431 496 25,000  Level Chicago Center
Sat 07:26:14 AM 42.7725 -87.0883 89° East 426 490 25,000  Level Chicago Center
Sat 07:27:15 AM 42.7744 -86.9264 89° East 429 494 25,000  Level Chicago Center
Sat 07:28:16 AM 42.7747 -86.7639 90° East 431 496 25,000  Level Chicago Center
Sat 07:29:16 AM 42.7781 -86.6022 88° East 430 495 25,000  Level Chicago Center
Sat 07:30:17 AM 42.7811 -86.4381 88° East 436 502 25,000  Level Chicago Center
Sat 07:31:18 AM 42.7819 -86.2767 90° East 432 497 25,000  Level Chicago Center
Sat 07:32:19 AM 42.7831 -86.1147 89° East 433 498 25,000  Level Chicago Center
Sat 07:33:20 AM 42.7836 -85.9528 90° East 434 499 25,000  Level Chicago Center
Sat 07:34:21 AM 42.7764 -85.7917 93° East 437 503 25,000 -836 Level Chicago Center
Sat 07:35:22 AM 42.7597 -85.5956 97° East 439 505 23,300 -1,686 Descending Chicago Center
Sat 07:36:22 AM 42.7542 -85.4328 93° East 435 501 21,600 -1,140 Descending Chicago Center
Sat 07:37:23 AM 42.7492 -85.2731 92° East 427 491 21,000 -295 Descending Chicago Center
Sat 07:38:24 AM 42.7408 -85.1183 94° East 417 480 21,000  Level Chicago Center
Sat 07:39:25 AM 42.7322 -84.9683 94° East 406 467 21,000  Level Chicago Center
Sat 07:40:26 AM 42.7172 -84.8208 98° East 399 459 21,000 -1,230 Level Chicago Center
Sat 07:41:27 AM 42.7031 -84.6750 97° East 392 451 18,500 -2,897 Descending Chicago Center
Sat 07:42:22 AM 42.6928 -84.5242 95° East 392 451 15,400 -3,358 Descending Cleveland Center
Sat 07:43:16 AM 42.7014 -84.3919 85° East 388 447 12,400 -3,250 Descending Cleveland Center
Sat 07:43:34 AM 42.7072 -84.3469 80° East 383 441 11,500 -1,909 Descending Cleveland Center
Sat 07:44:22 AM 42.7061 -84.2536 91° East 374 430 10,300 -1,278 Descending Cleveland Center
Sat 07:45:22 AM 42.7119 -84.1297 86° East 326 375 9,200 -600 Descending Cleveland Center
Sat 07:46:22 AM 42.6836 -84.0378 113° Southeast 268 308 9,100 -50 Descending Cleveland Center
Sat 07:47:22 AM 42.6253 -83.9611 136° Southeast 267 307 9,100 -950 Level Cleveland Center
Sat 07:48:22 AM 42.5728 -83.8992 139° Southeast 272 313 7,200 -2,080 Descending Cleveland Center
Sat 07:48:37 AM 42.5508 -83.8697 135° Southeast 279 321 6,500 -1,500 Descending Cleveland Center
Sat 07:49:22 AM 42.5167 -83.8283 138° Southeast 278 320 5,700 -1,475 Descending Cleveland Center
Sat 07:49:38 AM 42.4964 -83.8022 136° Southeast 264 304 5,000 -1,579 Descending Cleveland Center
Sat 07:50:38 AM 42.4500 -83.7461 138° Southeast 218 251 3,700 -992 Descending Cleveland Center
Sat 07:51:39 AM 42.4056 -83.6961 140° Southeast 203 234 3,000 -344 Descending Cleveland Center
Sat 07:52:40 AM 42.3653 -83.6408 135° Southeast 198 228 3,000 -50 Level Cleveland Center
Sat 07:53:40 AM 42.3608 -83.5786 96° East 179 206 2,900 -298 Descending Cleveland Center
Sat 07:54:41 AM 42.3850 -83.5292 56° Northeast 161 185 2,400 -246 Descending Cleveland Center
Sat 07:55:42 AM 42.3842 -83.4758 91° East 171 197 2,400  Level Cleveland Center
Sat 07:56:42 AM 42.3647 -83.4186 115° Southeast 160 184 2,400  Level Cleveland Center
Sat 07:57:43 AM 42.3339 -83.4006 157° South 142 163 2,400  Level Cleveland Center

Login

Don't have an account? Register now (free) for customized features, flight alerts, and more!